Terminal Aerodrome Forecast
Issued by NWS

Home | Current Version | Previous Version | Text Only | Print | Product List | Glossary On
Versions: 1 2 3 4 5 6 7 8 9 10 11 12 13 14 15 16
000
FTUS45 KTFX 041134
TAFGTF
TAF
KGTF 041134Z 0412/0512 22008KT P6SM SKC
     FM041700 33012KT P6SM SCT090 SCT150
     FM042200 01011KT P6SM VCTS SCT070CB BKN120 PROB30 0500/0504
      VRB25G40KT -TSRA BKN070CB
     FM050400 03008KT P6SM VCSH SCT035 BKN060=

USA.gov is the U.S. government's official web portal to all federal, state and local government web resources and services.